sensor_id;sensor_type;location;lat;lon;timestamp;pressure;altitude;pressure_sealevel;temperature;humidity
35655;BME280;21773;50.010;19.972;2022-10-16T00:01:33;98934.53;;;19.26;51.71
35655;BME280;21773;50.010;19.972;2022-10-16T00:04:37;98927.44;;;19.25;50.62
35655;BME280;21773;50.010;19.972;2022-10-16T00:07:41;98915.72;;;19.14;51.64
35655;BME280;21773;50.010;19.972;2022-10-16T00:10:44;98936.16;;;19.27;51.84
35655;BME280;21773;50.010;19.972;2022-10-16T00:13:50;98937.81;;;19.28;51.69
35655;BME280;21773;50.010;19.972;2022-10-16T00:16:53;98943.28;;;19.28;51.81
35655;BME280;21773;50.010;19.972;2022-10-16T00:19:57;98947.66;;;19.29;51.65
35655;BME280;21773;50.010;19.972;2022-10-16T00:23:21;98949.56;;;19.28;51.06
35655;BME280;21773;50.010;19.972;2022-10-16T00:26:24;98946.84;;;19.28;51.67
35655;BME280;21773;50.010;19.972;2022-10-16T00:29:29;98948.19;;;19.31;51.24
35655;BME280;21773;50.010;19.972;2022-10-16T00:32:32;98955.56;;;19.30;51.15
35655;BME280;21773;50.010;19.972;2022-10-16T00:35:35;98960.22;;;19.35;51.05
35655;BME280;21773;50.010;19.972;2022-10-16T00:38:40;98954.47;;;19.36;51.04
35655;BME280;21773;50.010;19.972;2022-10-16T00:41:43;98960.50;;;19.38;50.94
35655;BME280;21773;50.010;19.972;2022-10-16T00:44:50;98959.66;;;19.38;51.33
35655;BME280;21773;50.010;19.972;2022-10-16T00:47:55;98963.22;;;19.33;50.00
35655;BME280;21773;50.010;19.972;2022-10-16T00:50:59;98971.19;;;19.30;51.13
35655;BME280;21773;50.010;19.972;2022-10-16T00:54:06;98978.00;;;19.27;51.97
35655;BME280;21773;50.010;19.972;2022-10-16T00:57:11;98976.34;;;19.26;52.65
35655;BME280;21773;50.010;19.972;2022-10-16T01:00:18;98977.75;;;19.24;53.14
35655;BME280;21773;50.010;19.972;2022-10-16T01:03:25;98980.22;;;19.15;54.05
35655;BME280;21773;50.010;19.972;2022-10-16T01:06:36;98981.03;;;19.11;53.96
35655;BME280;21773;50.010;19.972;2022-10-16T01:09:54;98975.03;;;19.03;54.44
35655;BME280;21773;50.010;19.972;2022-10-16T01:13:05;98947.72;;;18.88;54.47
35655;BME280;21773;50.010;19.972;2022-10-16T01:16:13;98964.91;;;19.04;54.35
35655;BME280;21773;50.010;19.972;2022-10-16T01:19:27;98970.91;;;19.06;54.91
35655;BME280;21773;50.010;19.972;2022-10-16T01:22:43;98971.19;;;19.10;55.29
35655;BME280;21773;50.010;19.972;2022-10-16T01:26:06;98967.38;;;19.00;55.30
35655;BME280;21773;50.010;19.972;2022-10-16T01:29:17;98967.91;;;19.08;55.18
35655;BME280;21773;50.010;19.972;2022-10-16T01:32:29;98987.03;;;19.08;54.73
35655;BME280;21773;50.010;19.972;2022-10-16T01:35:36;98982.41;;;19.08;54.74
35655;BME280;21773;50.010;19.972;2022-10-16T01:38:44;98986.50;;;19.11;54.78
35655;BME280;21773;50.010;19.972;2022-10-16T01:41:54;98977.50;;;19.10;55.06
35655;BME280;21773;50.010;19.972;2022-10-16T01:45:05;98976.94;;;19.13;54.97
35655;BME280;21773;50.010;19.972;2022-10-16T01:48:12;98990.84;;;19.17;55.34
35655;BME280;21773;50.010;19.972;2022-10-16T01:51:17;98977.50;;;19.05;55.23
35655;BME280;21773;50.010;19.972;2022-10-16T01:54:25;98983.22;;;19.14;54.99
35655;BME280;21773;50.010;19.972;2022-10-16T01:57:32;98990.31;;;19.15;55.23
35655;BME280;21773;50.010;19.972;2022-10-16T02:00:43;98984.84;;;19.15;55.54
35655;BME280;21773;50.010;19.972;2022-10-16T02:03:51;98991.69;;;19.17;54.69
35655;BME280;21773;50.010;19.972;2022-10-16T02:06:56;98988.41;;;19.10;55.17
35655;BME280;21773;50.010;19.972;2022-10-16T02:10:00;98993.06;;;19.04;55.33
35655;BME280;21773;50.010;19.972;2022-10-16T02:13:07;98994.97;;;19.04;55.82
35655;BME280;21773;50.010;19.972;2022-10-16T02:16:14;99007.00;;;19.08;56.04
35655;BME280;21773;50.010;19.972;2022-10-16T02:19:18;98998.22;;;19.06;55.30
35655;BME280;21773;50.010;19.972;2022-10-16T02:22:28;99004.81;;;19.05;55.80
35655;BME280;21773;50.010;19.972;2022-10-16T02:25:35;99004.00;;;19.04;55.58
35655;BME280;21773;50.010;19.972;2022-10-16T02:28:44;98994.72;;;19.06;56.26
35655;BME280;21773;50.010;19.972;2022-10-16T02:31:53;98993.59;;;19.07;55.82
35655;BME280;21773;50.010;19.972;2022-10-16T02:34:59;98988.13;;;19.07;56.53
35655;BME280;21773;50.010;19.972;2022-10-16T02:38:04;98995.25;;;19.08;55.71
35655;BME280;21773;50.010;19.972;2022-10-16T02:41:09;98997.44;;;19.06;55.91
35655;BME280;21773;50.010;19.972;2022-10-16T02:44:12;98993.31;;;19.03;55.98
35655;BME280;21773;50.010;19.972;2022-10-16T02:47:17;98994.72;;;19.00;55.89
35655;BME280;21773;50.010;19.972;2022-10-16T02:50:20;98997.97;;;18.97;55.97
35655;BME280;21773;50.010;19.972;2022-10-16T02:53:24;98988.94;;;18.97;55.94
35655;BME280;21773;50.010;19.972;2022-10-16T02:56:27;98989.78;;;18.92;55.96
35655;BME280;21773;50.010;19.972;2022-10-16T02:59:31;98999.88;;;18.92;55.92
35655;BME280;21773;50.010;19.972;2022-10-16T03:02:36;99000.16;;;18.90;55.46
35655;BME280;21773;50.010;19.972;2022-10-16T03:05:39;99004.53;;;18.91;55.17
35655;BME280;21773;50.010;19.972;2022-10-16T03:08:43;99008.63;;;18.89;55.65
35655;BME280;21773;50.010;19.972;2022-10-16T03:11:46;99005.34;;;18.87;55.91
35655;BME280;21773;50.010;19.972;2022-10-16T03:14:49;98999.06;;;18.86;55.53
35655;BME280;21773;50.010;19.972;2022-10-16T03:17:54;98987.84;;;18.83;55.20
35655;BME280;21773;50.010;19.972;2022-10-16T03:20:57;98999.88;;;18.82;56.08
35655;BME280;21773;50.010;19.972;2022-10-16T03:24:01;98993.63;;;18.76;56.17
35655;BME280;21773;50.010;19.972;2022-10-16T03:27:04;99001.50;;;18.73;56.46
35655;BME280;21773;50.010;19.972;2022-10-16T03:30:09;98999.59;;;18.68;56.13
35655;BME280;21773;50.010;19.972;2022-10-16T03:33:13;99003.16;;;18.64;56.33
35655;BME280;21773;50.010;19.972;2022-10-16T03:36:17;99006.44;;;18.60;56.36
35655;BME280;21773;50.010;19.972;2022-10-16T03:39:20;99011.06;;;18.55;56.40
35655;BME280;21773;50.010;19.972;2022-10-16T03:42:23;99019.75;;;18.52;56.37
35655;BME280;21773;50.010;19.972;2022-10-16T03:45:27;99039.41;;;18.49;56.54
35655;BME280;21773;50.010;19.972;2022-10-16T03:48:31;99039.13;;;18.45;56.73
35655;BME280;21773;50.010;19.972;2022-10-16T03:51:35;99024.63;;;18.40;56.62
35655;BME280;21773;50.010;19.972;2022-10-16T03:54:39;99039.94;;;18.41;56.25
35655;BME280;21773;50.010;19.972;2022-10-16T03:57:42;99042.66;;;18.36;56.21
35655;BME280;21773;50.010;19.972;2022-10-16T04:00:46;99045.91;;;18.33;55.85
35655;BME280;21773;50.010;19.972;2022-10-16T04:03:51;99049.44;;;18.28;56.00
35655;BME280;21773;50.010;19.972;2022-10-16T04:06:55;99045.31;;;18.21;56.37
35655;BME280;21773;50.010;19.972;2022-10-16T04:09:58;99053.47;;;18.15;56.46
35655;BME280;21773;50.010;19.972;2022-10-16T04:13:01;98980.44;;;17.65;56.91
35655;BME280;21773;50.010;19.972;2022-10-16T04:16:05;99065.78;;;18.13;57.16
35655;BME280;21773;50.010;19.972;2022-10-16T04:19:11;99057.28;;;18.09;57.52
35655;BME280;21773;50.010;19.972;2022-10-16T04:22:14;99056.44;;;18.09;57.48
35655;BME280;21773;50.010;19.972;2022-10-16T04:25:18;99057.28;;;18.09;57.68
35655;BME280;21773;50.010;19.972;2022-10-16T04:28:21;99058.66;;;18.12;57.81
35655;BME280;21773;50.010;19.972;2022-10-16T04:31:25;99053.22;;;18.12;57.64
35655;BME280;21773;50.010;19.972;2022-10-16T04:34:30;99061.94;;;18.14;57.67
35655;BME280;21773;50.010;19.972;2022-10-16T04:37:33;99065.22;;;18.16;57.35
35655;BME280;21773;50.010;19.972;2022-10-16T04:40:36;99058.94;;;18.15;57.30
35655;BME280;21773;50.010;19.972;2022-10-16T04:43:40;99065.47;;;18.14;57.32
35655;BME280;21773;50.010;19.972;2022-10-16T04:46:43;99057.56;;;18.08;57.56
35655;BME280;21773;50.010;19.972;2022-10-16T04:49:48;99056.72;;;18.02;57.37
35655;BME280;21773;50.010;19.972;2022-10-16T04:52:51;99064.91;;;18.02;57.47
35655;BME280;21773;50.010;19.972;2022-10-16T04:55:55;99065.72;;;18.03;56.92
35655;BME280;21773;50.010;19.972;2022-10-16T04:58:59;99076.09;;;18.06;56.75
35655;BME280;21773;50.010;19.972;2022-10-16T05:02:03;99075.81;;;18.02;56.62
35655;BME280;21773;50.010;19.972;2022-10-16T05:05:08;99071.72;;;18.05;56.54
35655;BME280;21773;50.010;19.972;2022-10-16T05:08:12;99077.97;;;18.00;56.86
35655;BME280;21773;50.010;19.972;2022-10-16T05:11:16;99071.41;;;17.96;56.89
35655;BME280;21773;50.010;19.972;2022-10-16T05:14:19;99070.59;;;17.96;56.85
35655;BME280;21773;50.010;19.972;2022-10-16T05:17:22;99065.94;;;17.96;56.67
35655;BME280;21773;50.010;19.972;2022-10-16T05:20:28;99067.84;;;17.96;56.68
35655;BME280;21773;50.010;19.972;2022-10-16T05:23:31;99068.41;;;17.98;56.49
35655;BME280;21773;50.010;19.972;2022-10-16T05:26:34;99060.50;;;17.96;56.26
35655;BME280;21773;50.010;19.972;2022-10-16T05:29:38;99079.09;;;18.09;56.24
35655;BME280;21773;50.010;19.972;2022-10-16T05:32:46;99079.09;;;18.09;56.20
35655;BME280;21773;50.010;19.972;2022-10-16T05:35:51;99093.84;;;18.13;56.17
35655;BME280;21773;50.010;19.972;2022-10-16T05:38:54;99097.16;;;18.15;56.24
35655;BME280;21773;50.010;19.972;2022-10-16T05:41:57;99096.88;;;18.17;56.44
35655;BME280;21773;50.010;19.972;2022-10-16T05:45:01;99094.41;;;18.15;56.73
35655;BME280;21773;50.010;19.972;2022-10-16T05:48:04;99094.72;;;18.24;56.74
35655;BME280;21773;50.010;19.972;2022-10-16T05:51:12;99078.09;;;18.26;56.83
35655;BME280;21773;50.010;19.972;2022-10-16T05:54:16;99092.88;;;18.40;56.74
35655;BME280;21773;50.010;19.972;2022-10-16T05:57:19;99098.09;;;18.46;56.71
35655;BME280;21773;50.010;19.972;2022-10-16T06:00:22;99100.84;;;18.51;56.52
35655;BME280;21773;50.010;19.972;2022-10-16T06:03:26;99103.09;;;18.59;56.18
35655;BME280;21773;50.010;19.972;2022-10-16T06:06:31;99100.13;;;18.71;56.22
35655;BME280;21773;50.010;19.972;2022-10-16T06:09:34;99096.88;;;18.84;55.70
35655;BME280;21773;50.010;19.972;2022-10-16T06:12:38;99096.06;;;18.99;54.88
35655;BME280;21773;50.010;19.972;2022-10-16T06:15:43;99107.84;;;19.15;55.47
35655;BME280;21773;50.010;19.972;2022-10-16T06:18:46;99116.84;;;19.30;54.89
35655;BME280;21773;50.010;19.972;2022-10-16T06:21:51;99131.38;;;19.51;54.69
35655;BME280;21773;50.010;19.972;2022-10-16T06:24:55;99133.03;;;19.77;53.19
35655;BME280;21773;50.010;19.972;2022-10-16T06:27:58;99136.22;;;20.20;52.90
35655;BME280;21773;50.010;19.972;2022-10-16T06:31:02;99145.59;;;20.78;51.21
35655;BME280;21773;50.010;19.972;2022-10-16T06:34:10;99151.03;;;21.32;49.82
35655;BME280;21773;50.010;19.972;2022-10-16T06:37:14;99151.09;;;21.95;47.39
35655;BME280;21773;50.010;19.972;2022-10-16T06:40:18;99152.72;;;22.72;43.87
35655;BME280;21773;50.010;19.972;2022-10-16T06:43:21;99160.72;;;23.30;42.47
35655;BME280;21773;50.010;19.972;2022-10-16T06:46:25;99165.97;;;24.42;40.71
35655;BME280;21773;50.010;19.972;2022-10-16T06:49:29;99169.16;;;26.15;37.46
35655;BME280;21773;50.010;19.972;2022-10-16T06:52:34;99178.72;;;27.53;35.30
35655;BME280;21773;50.010;19.972;2022-10-16T06:55:37;99184.47;;;28.38;32.80
35655;BME280;21773;50.010;19.972;2022-10-16T06:58:41;99186.31;;;29.01;31.25
35655;BME280;21773;50.010;19.972;2022-10-16T07:01:45;99185.56;;;28.92;31.62
35655;BME280;21773;50.010;19.972;2022-10-16T07:04:48;99189.16;;;28.46;31.33
35655;BME280;21773;50.010;19.972;2022-10-16T07:07:52;99189.59;;;28.01;32.30
35655;BME280;21773;50.010;19.972;2022-10-16T07:10:59;99182.97;;;27.68;32.90
35655;BME280;21773;50.010;19.972;2022-10-16T07:14:03;99187.84;;;27.71;33.32
35655;BME280;21773;50.010;19.972;2022-10-16T07:17:07;99180.66;;;27.87;33.32
35655;BME280;21773;50.010;19.972;2022-10-16T07:20:10;99186.34;;;27.82;33.34
35655;BME280;21773;50.010;19.972;2022-10-16T07:23:15;99185.56;;;27.65;33.43
35655;BME280;21773;50.010;19.972;2022-10-16T07:26:19;99185.16;;;28.26;32.53
35655;BME280;21773;50.010;19.972;2022-10-16T07:29:23;99199.44;;;28.46;32.49
35655;BME280;21773;50.010;19.972;2022-10-16T07:32:26;99192.31;;;29.74;31.21
35655;BME280;21773;50.010;19.972;2022-10-16T07:35:30;99195.41;;;32.43;26.67
35655;BME280;21773;50.010;19.972;2022-10-16T07:38:34;99199.59;;;33.31;25.88
35655;BME280;21773;50.010;19.972;2022-10-16T07:41:38;99196.00;;;33.31;25.84
35655;BME280;21773;50.010;19.972;2022-10-16T07:44:41;99196.50;;;32.70;26.72
35655;BME280;21773;50.010;19.972;2022-10-16T07:47:45;99201.47;;;31.90;27.78
35655;BME280;21773;50.010;19.972;2022-10-16T07:50:48;99194.13;;;31.05;29.35
35655;BME280;21773;50.010;19.972;2022-10-16T07:53:53;99201.06;;;30.63;30.21
35655;BME280;21773;50.010;19.972;2022-10-16T07:56:56;99204.34;;;30.20;30.72
35655;BME280;21773;50.010;19.972;2022-10-16T08:00:00;99197.53;;;29.76;31.35
35655;BME280;21773;50.010;19.972;2022-10-16T08:03:12;99202.13;;;29.30;31.42
35655;BME280;21773;50.010;19.972;2022-10-16T08:06:16;99207.03;;;29.04;32.27
35655;BME280;21773;50.010;19.972;2022-10-16T08:09:27;99214.41;;;29.00;32.90
35655;BME280;21773;50.010;19.972;2022-10-16T08:12:30;99215.97;;;29.09;33.23
35655;BME280;21773;50.010;19.972;2022-10-16T08:15:33;99213.94;;;28.98;33.70
35655;BME280;21773;50.010;19.972;2022-10-16T08:18:38;99222.00;;;28.82;33.56
35655;BME280;21773;50.010;19.972;2022-10-16T08:21:41;99220.56;;;28.76;33.54
35655;BME280;21773;50.010;19.972;2022-10-16T08:24:46;99226.94;;;28.68;33.96
35655;BME280;21773;50.010;19.972;2022-10-16T08:27:49;99224.56;;;28.96;32.96
35655;BME280;21773;50.010;19.972;2022-10-16T08:30:53;99207.84;;;29.04;32.48
35655;BME280;21773;50.010;19.972;2022-10-16T08:33:58;99221.88;;;29.99;31.87
35655;BME280;21773;50.010;19.972;2022-10-16T08:37:02;99225.44;;;32.18;29.45
35655;BME280;21773;50.010;19.972;2022-10-16T08:40:16;99241.28;;;35.20;25.20
35655;BME280;21773;50.010;19.972;2022-10-16T08:43:38;99240.31;;;35.65;23.82
35655;BME280;21773;50.010;19.972;2022-10-16T08:46:51;99239.97;;;35.67;23.31
35655;BME280;21773;50.010;19.972;2022-10-16T08:50:09;99246.41;;;36.67;22.81
35655;BME280;21773;50.010;19.972;2022-10-16T08:53:18;99241.22;;;36.73;23.00
35655;BME280;21773;50.010;19.972;2022-10-16T08:56:26;99236.75;;;36.31;22.88
35655;BME280;21773;50.010;19.972;2022-10-16T08:59:29;99240.84;;;37.18;22.58
35655;BME280;21773;50.010;19.972;2022-10-16T09:02:35;99240.88;;;37.98;21.59
35655;BME280;21773;50.010;19.972;2022-10-16T09:06:03;99241.78;;;37.40;20.32
35655;BME280;21773;50.010;19.972;2022-10-16T09:09:26;99248.13;;;37.26;20.45
35655;BME280;21773;50.010;19.972;2022-10-16T09:12:38;99244.31;;;36.61;20.84
35655;BME280;21773;50.010;19.972;2022-10-16T09:15:53;99238.41;;;35.69;22.33
35655;BME280;21773;50.010;19.972;2022-10-16T09:19:03;99248.59;;;34.79;23.37
35655;BME280;21773;50.010;19.972;2022-10-16T09:22:14;99226.88;;;33.73;24.21
35655;BME280;21773;50.010;19.972;2022-10-16T09:25:21;99239.00;;;33.26;25.06
35655;BME280;21773;50.010;19.972;2022-10-16T09:28:26;99236.13;;;33.07;25.46
35655;BME280;21773;50.010;19.972;2022-10-16T09:31:29;99250.78;;;33.04;25.91
35655;BME280;21773;50.010;19.972;2022-10-16T09:34:34;99244.78;;;33.18;25.85
35655;BME280;21773;50.010;19.972;2022-10-16T09:37:39;99250.81;;;33.20;25.56
35655;BME280;21773;50.010;19.972;2022-10-16T09:40:43;99255.56;;;33.35;25.15
35655;BME280;21773;50.010;19.972;2022-10-16T09:43:54;99257.22;;;33.71;24.92
35655;BME280;21773;50.010;19.972;2022-10-16T09:47:02;99252.00;;;34.27;23.38
35655;BME280;21773;50.010;19.972;2022-10-16T09:50:21;99269.19;;;34.67;22.73
35655;BME280;21773;50.010;19.972;2022-10-16T09:53:27;99269.47;;;34.20;22.50
35655;BME280;21773;50.010;19.972;2022-10-16T09:56:40;99254.94;;;33.76;23.06
35655;BME280;21773;50.010;19.972;2022-10-16T09:59:50;99256.03;;;33.72;23.64
35655;BME280;21773;50.010;19.972;2022-10-16T10:02:54;99256.78;;;34.26;22.96
35655;BME280;21773;50.010;19.972;2022-10-16T10:05:58;99265.75;;;34.77;22.67
35655;BME280;21773;50.010;19.972;2022-10-16T10:09:06;99258.06;;;34.52;22.62
35655;BME280;21773;50.010;19.972;2022-10-16T10:12:19;99261.47;;;34.03;23.00
35655;BME280;21773;50.010;19.972;2022-10-16T10:15:34;99256.00;;;33.53;23.37
35655;BME280;21773;50.010;19.972;2022-10-16T10:18:44;99270.53;;;32.95;24.29
35655;BME280;21773;50.010;19.972;2022-10-16T10:21:48;99263.22;;;32.59;24.96
35655;BME280;21773;50.010;19.972;2022-10-16T10:24:56;99260.38;;;32.28;24.82
35655;BME280;21773;50.010;19.972;2022-10-16T10:28:16;99245.31;;;32.17;24.96
35655;BME280;21773;50.010;19.972;2022-10-16T10:31:27;99258.44;;;32.60;24.71
35655;BME280;21773;50.010;19.972;2022-10-16T10:34:42;99250.78;;;33.04;24.14
35655;BME280;21773;50.010;19.972;2022-10-16T10:38:09;99251.47;;;32.82;24.03
35655;BME280;21773;50.010;19.972;2022-10-16T10:41:32;99255.13;;;32.70;24.80
35655;BME280;21773;50.010;19.972;2022-10-16T10:44:53;99250.59;;;32.50;25.09
35655;BME280;21773;50.010;19.972;2022-10-16T10:48:11;99251.91;;;32.24;26.00
35655;BME280;21773;50.010;19.972;2022-10-16T10:51:24;99241.19;;;32.27;25.43
35655;BME280;21773;50.010;19.972;2022-10-16T10:54:33;99240.03;;;32.28;25.36
35655;BME280;21773;50.010;19.972;2022-10-16T10:57:48;99238.25;;;32.35;25.59
35655;BME280;21773;50.010;19.972;2022-10-16T11:00:58;99248.06;;;32.60;25.40
35655;BME280;21773;50.010;19.972;2022-10-16T11:04:23;99252.97;;;32.95;24.63
35655;BME280;21773;50.010;19.972;2022-10-16T11:07:33;99243.06;;;33.13;24.45
35655;BME280;21773;50.010;19.972;2022-10-16T11:10:45;99243.69;;;33.38;24.35
35655;BME280;21773;50.010;19.972;2022-10-16T11:13:55;99244.50;;;33.23;24.42
35655;BME280;21773;50.010;19.972;2022-10-16T11:17:05;99248.66;;;32.97;24.31
35655;BME280;21773;50.010;19.972;2022-10-16T11:20:16;99238.41;;;32.27;25.13
35655;BME280;21773;50.010;19.972;2022-10-16T11:23:26;99235.94;;;31.97;25.96
35655;BME280;21773;50.010;19.972;2022-10-16T11:26:34;99233.16;;;31.57;26.03
35655;BME280;21773;50.010;19.972;2022-10-16T11:29:45;99238.91;;;31.24;26.79
35655;BME280;21773;50.010;19.972;2022-10-16T11:33:03;99245.72;;;30.90;26.98
35655;BME280;21773;50.010;19.972;2022-10-16T11:36:14;99239.56;;;30.61;28.02
35655;BME280;21773;50.010;19.972;2022-10-16T11:39:20;99237.72;;;30.32;28.00
35655;BME280;21773;50.010;19.972;2022-10-16T11:42:29;99241.78;;;30.01;28.22
35655;BME280;21773;50.010;19.972;2022-10-16T11:45:40;99246.38;;;29.77;29.05
35655;BME280;21773;50.010;19.972;2022-10-16T11:48:49;99243.22;;;29.45;29.13
35655;BME280;21773;50.010;19.972;2022-10-16T11:52:00;99242.06;;;29.17;29.76
35655;BME280;21773;50.010;19.972;2022-10-16T11:55:15;99234.75;;;28.83;30.41
35655;BME280;21773;50.010;19.972;2022-10-16T11:58:25;99241.50;;;28.56;31.02
35655;BME280;21773;50.010;19.972;2022-10-16T12:01:32;99245.97;;;28.31;31.32
35655;BME280;21773;50.010;19.972;2022-10-16T12:04:45;99238.69;;;28.18;31.08
35655;BME280;21773;50.010;19.972;2022-10-16T12:07:59;99245.69;;;27.98;31.41
35655;BME280;21773;50.010;19.972;2022-10-16T12:11:19;99242.59;;;27.83;31.78
35655;BME280;21773;50.010;19.972;2022-10-16T12:14:37;99247.97;;;27.62;32.78
35655;BME280;21773;50.010;19.972;2022-10-16T12:18:01;99252.00;;;27.39;32.79
35655;BME280;21773;50.010;19.972;2022-10-16T12:21:05;99256.03;;;27.24;33.03
35655;BME280;21773;50.010;19.972;2022-10-16T12:24:22;99254.88;;;27.17;32.76
35655;BME280;21773;50.010;19.972;2022-10-16T12:27:32;99255.50;;;27.05;33.05
35655;BME280;21773;50.010;19.972;2022-10-16T12:30:36;99248.31;;;27.04;33.60
35655;BME280;21773;50.010;19.972;2022-10-16T12:33:41;99249.06;;;27.35;33.17
35655;BME280;21773;50.010;19.972;2022-10-16T12:36:46;99259.38;;;27.86;33.64
35655;BME280;21773;50.010;19.972;2022-10-16T12:39:53;99260.78;;;28.53;31.88
35655;BME280;21773;50.010;19.972;2022-10-16T12:42:57;99263.34;;;28.66;31.63
35655;BME280;21773;50.010;19.972;2022-10-16T12:46:04;99258.72;;;28.79;31.39
35655;BME280;21773;50.010;19.972;2022-10-16T12:49:22;99266.13;;;29.04;30.77
35655;BME280;21773;50.010;19.972;2022-10-16T12:52:28;99254.69;;;29.06;30.41
35655;BME280;21773;50.010;19.972;2022-10-16T12:55:50;99258.31;;;29.06;30.41
35655;BME280;21773;50.010;19.972;2022-10-16T12:59:09;99264.28;;;28.79;30.92
35655;BME280;21773;50.010;19.972;2022-10-16T13:02:39;99266.63;;;28.60;31.16
35655;BME280;21773;50.010;19.972;2022-10-16T13:06:04;99255.25;;;28.44;31.53
35655;BME280;21773;50.010;19.972;2022-10-16T13:09:20;99273.25;;;28.29;32.03
35655;BME280;21773;50.010;19.972;2022-10-16T13:12:49;99271.78;;;28.15;32.16
35655;BME280;21773;50.010;19.972;2022-10-16T13:16:08;99263.75;;;27.96;32.05
35655;BME280;21773;50.010;19.972;2022-10-16T13:19:22;99275.38;;;27.89;32.26
35655;BME280;21773;50.010;19.972;2022-10-16T13:22:33;99277.66;;;27.70;32.96
35655;BME280;21773;50.010;19.972;2022-10-16T13:25:50;99277.56;;;27.44;33.62
35655;BME280;21773;50.010;19.972;2022-10-16T13:29:00;99281.09;;;27.19;33.73
35655;BME280;21773;50.010;19.972;2022-10-16T13:32:07;99278.00;;;27.12;33.79
35655;BME280;21773;50.010;19.972;2022-10-16T13:35:23;99279.56;;;26.96;34.25
35655;BME280;21773;50.010;19.972;2022-10-16T13:38:27;99287.59;;;26.84;34.57
35655;BME280;21773;50.010;19.972;2022-10-16T13:41:31;99293.63;;;26.77;34.95
35655;BME280;21773;50.010;19.972;2022-10-16T13:44:40;99294.34;;;26.60;35.60
35655;BME280;21773;50.010;19.972;2022-10-16T13:47:44;99298.88;;;26.56;35.63
35655;BME280;21773;50.010;19.972;2022-10-16T13:50:58;99297.16;;;26.38;36.34
35655;BME280;21773;50.010;19.972;2022-10-16T13:54:01;99293.50;;;26.29;36.69
35655;BME280;21773;50.010;19.972;2022-10-16T13:57:06;99303.63;;;26.20;36.85
35655;BME280;21773;50.010;19.972;2022-10-16T14:00:29;99307.97;;;26.12;37.36
35655;BME280;21773;50.010;19.972;2022-10-16T14:03:34;99303.13;;;25.96;37.70
35655;BME280;21773;50.010;19.972;2022-10-16T14:06:42;99310.53;;;25.86;38.20
35655;BME280;21773;50.010;19.972;2022-10-16T14:09:49;99316.41;;;25.71;38.25
35655;BME280;21773;50.010;19.972;2022-10-16T14:12:58;99304.16;;;25.64;38.46
35655;BME280;21773;50.010;19.972;2022-10-16T14:16:07;99311.81;;;25.53;38.67
35655;BME280;21773;50.010;19.972;2022-10-16T14:19:18;99304.25;;;25.45;38.79
35655;BME280;21773;50.010;19.972;2022-10-16T14:22:28;99319.09;;;25.35;39.29
35655;BME280;21773;50.010;19.972;2022-10-16T14:25:32;99308.28;;;25.25;39.63
35655;BME280;21773;50.010;19.972;2022-10-16T14:28:36;99307.75;;;25.23;39.44
35655;BME280;21773;50.010;19.972;2022-10-16T14:31:54;99307.25;;;25.21;39.63
35655;BME280;21773;50.010;19.972;2022-10-16T14:34:57;99313.38;;;25.18;39.47
35655;BME280;21773;50.010;19.972;2022-10-16T14:38:02;99313.47;;;25.13;39.63
35655;BME280;21773;50.010;19.972;2022-10-16T14:41:07;99304.09;;;25.14;40.09
35655;BME280;21773;50.010;19.972;2022-10-16T14:44:11;99308.47;;;25.15;39.87
35655;BME280;21773;50.010;19.972;2022-10-16T14:47:19;99304.91;;;25.15;40.25
35655;BME280;21773;50.010;19.972;2022-10-16T14:50:24;99304.28;;;25.18;40.12
35655;BME280;21773;50.010;19.972;2022-10-16T14:53:28;99300.16;;;25.42;39.70
35655;BME280;21773;50.010;19.972;2022-10-16T14:56:35;99297.91;;;25.58;39.57
35655;BME280;21773;50.010;19.972;2022-10-16T14:59:45;99292.78;;;25.52;39.46
35655;BME280;21773;50.010;19.972;2022-10-16T15:02:51;99290.25;;;25.41;39.55
35655;BME280;21773;50.010;19.972;2022-10-16T15:05:54;99300.47;;;25.27;39.94
35655;BME280;21773;50.010;19.972;2022-10-16T15:08:57;99310.41;;;25.15;40.18
35655;BME280;21773;50.010;19.972;2022-10-16T15:12:01;99316.03;;;25.10;40.13
35655;BME280;21773;50.010;19.972;2022-10-16T15:15:28;99318.19;;;24.99;40.20
35655;BME280;21773;50.010;19.972;2022-10-16T15:18:35;99324.41;;;24.91;40.40
35655;BME280;21773;50.010;19.972;2022-10-16T15:21:38;99300.84;;;24.66;40.81
35655;BME280;21773;50.010;19.972;2022-10-16T15:24:41;99334.06;;;24.75;41.07
35655;BME280;21773;50.010;19.972;2022-10-16T15:27:45;99335.78;;;24.71;41.12
35655;BME280;21773;50.010;19.972;2022-10-16T15:30:49;99342.50;;;24.65;41.38
35655;BME280;21773;50.010;19.972;2022-10-16T15:33:54;99342.91;;;24.58;41.50
35655;BME280;21773;50.010;19.972;2022-10-16T15:37:03;99348.28;;;24.49;41.74
35655;BME280;21773;50.010;19.972;2022-10-16T15:40:08;99343.47;;;24.41;42.25
35655;BME280;21773;50.010;19.972;2022-10-16T15:43:12;99358.97;;;24.37;42.03
35655;BME280;21773;50.010;19.972;2022-10-16T15:46:18;99353.34;;;24.29;42.58
35655;BME280;21773;50.010;19.972;2022-10-16T15:49:23;99344.41;;;24.18;42.65
35655;BME280;21773;50.010;19.972;2022-10-16T15:52:26;99350.88;;;24.08;42.96
35655;BME280;21773;50.010;19.972;2022-10-16T15:55:30;99353.25;;;23.96;43.56
35655;BME280;21773;50.010;19.972;2022-10-16T15:58:34;99345.94;;;23.87;43.86
35655;BME280;21773;50.010;19.972;2022-10-16T16:01:37;99351.81;;;23.80;43.72
35655;BME280;21773;50.010;19.972;2022-10-16T16:04:42;99354.13;;;23.73;44.00
35655;BME280;21773;50.010;19.972;2022-10-16T16:07:46;99354.81;;;23.65;44.44
35655;BME280;21773;50.010;19.972;2022-10-16T16:10:57;99362.94;;;23.51;44.94
35655;BME280;21773;50.010;19.972;2022-10-16T16:14:00;99360.59;;;23.40;45.07
35655;BME280;21773;50.010;19.972;2022-10-16T16:17:04;99348.34;;;23.27;45.12
35655;BME280;21773;50.010;19.972;2022-10-16T16:20:10;99357.31;;;23.14;44.80